Time;durP1;ratioP1;P1;durP2;ratioP2;P2;SDS_P1;SDS_P2;PMS_P1;PMS_P2;Temp;Humidity;BMP_temperature;BMP_pressure;BME280_temperature;BME280_humidity;BME280_pressure;Samples;Min_cycle;Max_cycle;Signal;HPM_P1;HPM_P2
2022/08/14 00:01:14;;;;;;;11.88;7.25;;;21.60;99.90;;;;;;4945376;29;20047;-96
2022/08/14 00:03:39;;;;;;;10.85;6.53;;;21.60;99.90;;;;;;4958734;29;20054;-96
2022/08/14 00:06:05;;;;;;;10.43;6.38;;;21.50;99.90;;;;;;4958899;29;20048;-96
2022/08/14 00:08:31;;;;;;;10.70;6.88;;;21.50;99.90;;;;;;4945972;29;20043;-96
2022/08/14 00:10:56;;;;;;;10.93;6.65;;;21.40;99.90;;;;;;4959950;29;20031;-96
2022/08/14 00:13:27;;;;;;;11.10;7.10;;;21.60;99.90;;;;;;4943240;29;20173;-96
2022/08/14 00:15:55;;;;;;;13.98;6.82;;;21.60;99.90;;;;;;4943748;29;20050;-96
2022/08/14 00:18:23;;;;;;;12.20;7.18;;;21.20;99.90;;;;;;4942168;29;20047;-96
2022/08/14 00:20:50;;;;;;;10.70;7.18;;;21.30;99.90;;;;;;4975070;28;20047;-96
2022/08/14 00:23:17;;;;;;;11.45;7.30;;;21.10;99.90;;;;;;4959618;29;20039;-96
2022/08/14 00:25:54;;;;;;;11.25;7.00;;;21.40;99.90;;;;;;4961563;29;20484;-96
2022/08/14 00:28:25;;;;;;;13.35;6.93;;;21.00;99.90;;;;;;4941907;29;20047;-96
2022/08/14 00:30:56;;;;;;;10.25;6.72;;;20.90;99.90;;;;;;4957818;29;20455;-96
2022/08/14 00:33:26;;;;;;;13.55;7.13;;;21.10;99.90;;;;;;4957469;29;20035;-95
2022/08/14 00:35:52;;;;;;;10.90;6.80;;;20.90;99.90;;;;;;4959823;29;20105;-96
2022/08/14 00:38:19;;;;;;;11.65;7.30;;;20.80;99.90;;;;;;4960057;29;20035;-95
2022/08/14 00:40:45;;;;;;;13.13;7.50;;;20.60;99.90;;;;;;4940857;29;20050;-95
2022/08/14 00:43:12;;;;;;;11.07;7.07;;;20.60;99.90;;;;;;4940356;29;20039;-96
2022/08/14 00:45:37;;;;;;;11.20;6.95;;;20.50;99.90;;;;;;4940234;29;20047;-96
2022/08/14 00:48:04;;;;;;;12.73;7.63;;;20.50;99.90;;;;;;4957286;29;20538;-96
2022/08/14 00:50:29;;;;;;;11.60;7.35;;;20.50;99.90;;;;;;4939899;29;20549;-96
2022/08/14 00:52:58;;;;;;;11.95;7.18;;;20.90;99.90;;;;;;4940155;29;20106;-95
2022/08/14 00:55:26;;;;;;;12.90;7.78;;;20.50;99.90;;;;;;4939581;29;20051;-95
2022/08/14 01:00:39;;;;;;;11.10;7.18;;;20.40;99.90;;;;;;4957096;28;20047;-96
2022/08/14 01:03:06;;;;;;;13.93;7.88;;;20.30;99.90;;;;;;4956681;28;20043;-95
2022/08/14 01:05:33;;;;;;;14.20;7.63;;;20.60;99.90;;;;;;4957209;29;20075;-96
2022/08/14 01:07:59;;;;;;;14.52;7.72;;;20.40;99.90;;;;;;4957211;29;20047;-96
2022/08/14 01:13:18;;;;;;;12.15;7.38;;;20.40;99.90;;;;;;4939844;29;20051;-96
2022/08/14 01:15:44;;;;;;;11.40;7.22;;;20.40;99.90;;;;;;4938732;29;20062;-96
2022/08/14 01:21:03;;;;;;;11.27;7.63;;;20.60;99.90;;;;;;4940898;29;20487;-96
2022/08/14 01:23:30;;;;;;;11.38;7.22;;;20.20;99.90;;;;;;4939828;29;20043;-96
2022/08/14 01:25:57;;;;;;;13.57;7.50;;;20.30;99.90;;;;;;4960399;29;20046;-96
2022/08/14 01:28:25;;;;;;;11.45;7.40;;;20.30;99.90;;;;;;4958220;29;20118;-96
2022/08/14 01:30:54;;;;;;;12.52;7.93;;;20.20;99.90;;;;;;4971753;28;20070;-95
2022/08/14 01:33:21;;;;;;;11.43;7.47;;;20.20;99.90;;;;;;4962015;29;20043;-95
2022/08/14 01:35:47;;;;;;;11.85;7.78;;;20.20;99.90;;;;;;4965030;29;20471;-96
2022/08/14 01:38:16;;;;;;;12.70;8.02;;;20.70;99.90;;;;;;4957316;29;20094;-96
2022/08/14 01:40:42;;;;;;;13.07;7.80;;;20.10;99.90;;;;;;4939489;29;20479;-95
2022/08/14 01:43:16;;;;;;;12.45;7.40;;;20.10;99.90;;;;;;4964030;29;20178;-96
2022/08/14 01:45:43;;;;;;;12.07;7.68;;;20.00;99.90;;;;;;4942661;29;20055;-96
2022/08/14 01:48:10;;;;;;;11.73;7.70;;;20.20;99.90;;;;;;4939939;29;20051;-96
2022/08/14 01:50:36;;;;;;;12.35;7.47;;;20.00;99.90;;;;;;4956697;29;20097;-96
2022/08/14 01:53:03;;;;;;;14.45;8.00;;;20.10;99.90;;;;;;4956722;29;20114;-96
2022/08/14 01:55:30;;;;;;;12.13;7.57;;;19.90;99.90;;;;;;4939257;29;20059;-96
2022/08/14 01:57:59;;;;;;;15.32;7.97;;;19.80;99.90;;;;;;4957875;29;20054;-96
2022/08/14 02:00:25;;;;;;;13.65;7.95;;;19.90;99.90;;;;;;4958468;28;20020;-96
2022/08/14 02:02:51;;;;;;;12.30;7.50;;;20.00;99.90;;;;;;4976997;28;20099;-96
2022/08/14 02:05:16;;;;;;;12.15;7.85;;;20.30;99.90;;;;;;4978266;28;20027;-95
2022/08/14 02:07:45;;;;;;;14.25;7.40;;;19.80;99.90;;;;;;4962051;28;20035;-95
2022/08/14 02:10:12;;;;;;;11.95;7.75;;;19.70;99.90;;;;;;4979737;28;20027;-96
2022/08/14 02:12:39;;;;;;;12.07;7.82;;;19.70;99.90;;;;;;4979149;29;20027;-96
2022/08/14 02:15:08;;;;;;;11.70;7.75;;;19.90;99.90;;;;;;4991540;28;20039;-96
2022/08/14 02:17:34;;;;;;;12.02;7.72;;;19.60;99.90;;;;;;4958708;29;20058;-96
2022/08/14 02:20:00;;;;;;;14.45;8.07;;;19.60;99.90;;;;;;4948967;29;20043;-96
2022/08/14 02:22:26;;;;;;;12.90;7.38;;;19.60;99.90;;;;;;4958574;29;20047;-96
2022/08/14 02:24:52;;;;;;;13.30;7.78;;;19.50;99.90;;;;;;4942190;29;20047;-96
2022/08/14 02:27:19;;;;;;;13.30;7.80;;;19.50;99.90;;;;;;4942472;29;20138;-96
2022/08/14 02:29:45;;;;;;;15.00;8.00;;;19.50;99.90;;;;;;4971127;28;20059;-94
2022/08/14 02:32:10;;;;;;;12.52;7.68;;;19.50;99.90;;;;;;4939088;29;20071;-96
2022/08/14 02:34:39;;;;;;;12.65;8.10;;;19.50;99.90;;;;;;4938524;29;20043;-95
2022/08/14 02:37:08;;;;;;;13.23;8.45;;;19.50;99.90;;;;;;4955447;29;20521;-95
2022/08/14 02:39:42;;;;;;;12.85;8.10;;;19.40;99.90;;;;;;4973393;28;20047;-96
2022/08/14 02:42:12;;;;;;;12.85;8.48;;;19.40;99.90;;;;;;4955753;29;20055;-95
2022/08/14 02:44:42;;;;;;;13.13;8.60;;;19.60;99.90;;;;;;4955028;29;20050;-95
2022/08/14 02:47:07;;;;;;;14.70;8.55;;;19.30;99.90;;;;;;4935183;29;20039;-94
2022/08/14 02:49:34;;;;;;;15.15;8.68;;;19.70;99.90;;;;;;4954849;29;20047;-95
2022/08/14 02:52:00;;;;;;;13.50;8.63;;;19.50;99.90;;;;;;4955795;29;20062;-95
2022/08/14 02:54:26;;;;;;;12.57;8.65;;;19.80;99.90;;;;;;4955171;29;20070;-94
2022/08/14 02:56:56;;;;;;;12.15;8.10;;;19.30;99.90;;;;;;4955822;29;20039;-95
2022/08/14 02:59:23;;;;;;;13.25;8.60;;;19.20;99.90;;;;;;4938060;29;20044;-95
2022/08/14 03:01:52;;;;;;;13.07;8.48;;;19.40;99.90;;;;;;4955588;29;20131;-96
2022/08/14 03:04:18;;;;;;;13.30;8.57;;;19.20;99.90;;;;;;4955298;29;20047;-96
2022/08/14 03:06:45;;;;;;;12.95;8.98;;;19.10;99.90;;;;;;4939880;29;20564;-96
2022/08/14 03:09:11;;;;;;;13.23;8.57;;;19.20;99.90;;;;;;4970560;28;20044;-95
2022/08/14 03:11:38;;;;;;;13.20;8.98;;;19.50;99.90;;;;;;4955575;29;20079;-95
2022/08/14 03:14:04;;;;;;;14.18;8.95;;;19.10;99.90;;;;;;4956089;29;20058;-96
2022/08/14 03:16:34;;;;;;;13.50;8.82;;;19.10;99.90;;;;;;4958098;29;20047;-95
2022/08/14 03:19:01;;;;;;;13.57;9.00;;;19.40;99.90;;;;;;4939589;29;20039;-95
2022/08/14 03:21:30;;;;;;;14.10;8.77;;;19.10;99.90;;;;;;4938181;29;20402;-96
2022/08/14 03:26:33;;;;;;;14.35;8.63;;;19.30;99.90;;;;;;4941767;29;20685;-95
2022/08/14 03:29:01;;;;;;;13.13;9.00;;;19.00;99.90;;;;;;4964298;29;20070;-96
2022/08/14 03:31:26;;;;;;;15.35;9.50;;;19.00;99.90;;;;;;4941483;29;20062;-96
2022/08/14 03:33:52;;;;;;;14.40;9.38;;;18.90;99.90;;;;;;4941672;29;20043;-96
2022/08/14 03:36:20;;;;;;;14.68;9.45;;;18.90;99.90;;;;;;4945264;29;20039;-96
2022/08/14 03:38:49;;;;;;;14.25;8.93;;;18.90;99.90;;;;;;4962270;29;20047;-95
2022/08/14 03:41:21;;;;;;;15.05;9.63;;;19.50;99.90;;;;;;4941307;29;20054;-96
2022/08/14 03:43:54;;;;;;;14.27;9.02;;;18.90;99.90;;;;;;4941492;29;20070;-96
2022/08/14 03:46:20;;;;;;;13.05;9.23;;;18.80;99.90;;;;;;4992506;28;20031;-95
2022/08/14 03:48:47;;;;;;;14.13;9.48;;;19.20;99.90;;;;;;4978960;29;20037;-95
2022/08/14 03:51:12;;;;;;;14.43;9.13;;;18.80;99.90;;;;;;4960733;29;20051;-96
2022/08/14 03:53:41;;;;;;;14.10;8.90;;;18.80;99.90;;;;;;4941052;29;20047;-95
2022/08/14 03:56:15;;;;;;;13.75;9.27;;;18.80;99.90;;;;;;4958488;29;20054;-95
2022/08/14 03:58:44;;;;;;;13.68;9.20;;;18.70;99.90;;;;;;4941814;29;20071;-94
2022/08/14 04:01:11;;;;;;;13.75;9.40;;;18.70;99.90;;;;;;4981772;28;20093;-95
2022/08/14 04:03:37;;;;;;;13.65;9.25;;;18.70;99.90;;;;;;4972757;28;20053;-95
2022/08/14 04:06:03;;;;;;;14.43;9.55;;;18.70;99.90;;;;;;4960299;28;20133;-95
2022/08/14 04:08:29;;;;;;;15.00;8.90;;;18.70;99.90;;;;;;4960174;28;20049;-95
2022/08/14 04:10:56;;;;;;;14.20;9.20;;;18.70;99.90;;;;;;4994112;28;20066;-96
2022/08/14 04:13:21;;;;;;;14.55;9.48;;;18.60;99.90;;;;;;4971711;28;20468;-96
2022/08/14 04:15:47;;;;;;;14.50;9.32;;;18.70;99.90;;;;;;4960048;28;20126;-95
2022/08/14 04:18:13;;;;;;;15.02;9.57;;;18.70;99.90;;;;;;4960163;28;20053;-96
2022/08/14 04:20:41;;;;;;;15.07;9.60;;;18.70;99.90;;;;;;4959823;28;20133;-96
2022/08/14 04:23:08;;;;;;;15.13;9.30;;;18.70;99.90;;;;;;4959913;28;20125;-95
2022/08/14 04:25:35;;;;;;;14.05;9.43;;;18.70;99.90;;;;;;4960231;28;20043;-96
2022/08/14 04:28:02;;;;;;;14.70;9.90;;;18.60;99.90;;;;;;4977142;28;20043;-96
2022/08/14 04:30:29;;;;;;;16.35;9.57;;;19.10;99.90;;;;;;4959546;28;20409;-95
2022/08/14 04:32:56;;;;;;;13.27;9.38;;;18.60;99.90;;;;;;4960068;28;20065;-95
2022/08/14 04:35:21;;;;;;;13.75;9.38;;;19.00;99.90;;;;;;4959435;28;20042;-96
2022/08/14 04:46:00;;;;;;;15.57;9.82;;;18.70;99.90;;;;;;4977415;28;20047;-96
2022/08/14 04:48:27;;;;;;;15.88;9.73;;;18.80;99.90;;;;;;4960318;28;20047;-96
2022/08/14 04:50:56;;;;;;;15.27;9.25;;;18.70;99.90;;;;;;4977176;28;20395;-95
2022/08/14 04:53:24;;;;;;;14.68;9.75;;;18.80;99.90;;;;;;4976599;28;20469;-95
2022/08/14 04:55:50;;;;;;;15.65;9.80;;;18.90;99.90;;;;;;4958803;28;20437;-95
2022/08/14 04:58:18;;;;;;;14.57;10.00;;;18.90;99.90;;;;;;4959146;28;20050;-96
2022/08/14 05:00:45;;;;;;;16.38;9.63;;;18.90;99.90;;;;;;4958914;28;20133;-96
2022/08/14 05:03:12;;;;;;;14.95;9.30;;;18.90;99.90;;;;;;4976765;28;20050;-96
2022/08/14 05:05:38;;;;;;;15.98;9.52;;;19.00;99.90;;;;;;4960548;28;20054;-95
2022/08/14 05:08:10;;;;;;;14.73;10.15;;;19.00;99.90;;;;;;4978387;28;20517;-96
2022/08/14 05:10:39;;;;;;;14.43;9.20;;;19.20;99.90;;;;;;4975966;28;20422;-95
2022/08/14 05:13:06;;;;;;;19.08;9.50;;;19.20;99.90;;;;;;4976308;28;20043;-96
2022/08/14 05:15:36;;;;;;;14.45;9.27;;;19.20;99.90;;;;;;4976444;28;20518;-96
2022/08/14 05:18:11;;;;;;;14.35;9.48;;;19.30;99.90;;;;;;4969185;28;20037;-95
2022/08/14 05:20:42;;;;;;;14.88;9.38;;;19.20;99.90;;;;;;4999843;28;20026;-95
2022/08/14 05:23:09;;;;;;;13.70;9.05;;;19.30;99.90;;;;;;4999941;28;20039;-96
2022/08/14 05:25:37;;;;;;;14.82;9.18;;;19.30;99.90;;;;;;4975447;28;20042;-96
2022/08/14 05:28:24;;;;;;;14.60;9.43;;;19.40;99.90;;;;;;4959207;28;20093;-96
2022/08/14 05:31:00;;;;;;;14.32;9.65;;;19.40;99.90;;;;;;4980697;28;20502;-95
2022/08/14 05:33:27;;;;;;;14.63;9.38;;;19.50;99.90;;;;;;4977680;28;20117;-95
2022/08/14 05:35:59;;;;;;;14.88;9.10;;;19.60;99.90;;;;;;4978591;28;20111;-95
2022/08/14 05:38:32;;;;;;;13.55;8.98;;;19.60;99.90;;;;;;4975939;28;20053;-95
2022/08/14 05:41:03;;;;;;;14.97;9.23;;;19.70;99.90;;;;;;4958503;28;20075;-95
2022/08/14 05:43:29;;;;;;;15.20;10.20;;;19.70;99.90;;;;;;4975437;28;20046;-96
2022/08/14 05:45:57;;;;;;;15.57;9.35;;;19.80;99.90;;;;;;4976124;28;20073;-94
2022/08/14 05:48:23;;;;;;;14.43;9.40;;;20.00;99.90;;;;;;4958358;28;20074;-96
2022/08/14 05:50:50;;;;;;;15.60;9.18;;;19.90;99.90;;;;;;4974830;28;20042;-96
2022/08/14 05:53:16;;;;;;;15.07;9.70;;;19.90;99.90;;;;;;4963642;28;20102;-95
2022/08/14 05:55:42;;;;;;;15.05;9.25;;;19.90;99.90;;;;;;4957805;28;20078;-94
2022/08/14 05:58:07;;;;;;;15.43;10.00;;;20.00;99.90;;;;;;4957815;28;20046;-95
2022/08/14 06:00:36;;;;;;;16.42;9.88;;;20.00;99.90;;;;;;4964190;28;20101;-95
2022/08/14 06:03:07;;;;;;;18.58;9.70;;;20.10;99.90;;;;;;4981692;28;20054;-94
2022/08/14 06:05:34;;;;;;;16.05;10.15;;;20.20;99.90;;;;;;4957299;28;20133;-95
2022/08/14 06:08:00;;;;;;;16.67;10.55;;;20.30;99.90;;;;;;4958190;28;20507;-96
2022/08/14 06:10:27;;;;;;;16.40;10.20;;;20.80;99.90;;;;;;4982106;28;20051;-95
2022/08/14 06:12:53;;;;;;;15.40;10.20;;;20.30;99.90;;;;;;4972263;28;20155;-96
2022/08/14 06:15:19;;;;;;;14.95;9.93;;;20.40;99.90;;;;;;4957740;28;20086;-95
2022/08/14 06:17:51;;;;;;;15.05;9.15;;;20.50;99.90;;;;;;4957590;28;20117;-95
2022/08/14 06:20:17;;;;;;;13.70;9.27;;;20.60;99.90;;;;;;4957565;28;20038;-96
2022/08/14 06:22:44;;;;;;;15.02;8.75;;;20.80;99.90;;;;;;4960702;28;20086;-96
2022/08/14 06:25:12;;;;;;;14.10;9.20;;;21.30;99.90;;;;;;4961154;28;20047;-96
2022/08/14 06:27:39;;;;;;;13.05;9.02;;;21.20;99.90;;;;;;5159355;23;20034;-93
2022/08/14 06:30:13;;;;;;;13.27;8.35;;;20.90;99.90;;;;;;4993293;28;20070;-89
2022/08/14 06:32:39;;;;;;;14.30;9.38;;;21.00;99.90;;;;;;4966474;23;20055;-81
2022/08/14 06:35:07;;;;;;;14.18;8.68;;;21.20;99.90;;;;;;4973996;28;20042;-83
2022/08/14 06:37:45;;;;;;;13.90;8.85;;;21.20;99.90;;;;;;4955924;28;20043;-81
2022/08/14 06:40:12;;;;;;;12.95;8.35;;;21.40;99.90;;;;;;4972898;28;20042;-81
2022/08/14 06:42:39;;;;;;;14.23;8.90;;;22.00;99.90;;;;;;4956567;28;20054;-81
2022/08/14 06:45:06;;;;;;;13.02;8.10;;;21.60;99.90;;;;;;4974070;28;20039;-84
2022/08/14 06:47:39;;;;;;;14.60;8.43;;;21.70;99.90;;;;;;4972877;28;20051;-85
2022/08/14 06:50:09;;;;;;;13.80;9.07;;;21.80;99.90;;;;;;4956399;28;20050;-84
2022/08/14 06:52:34;;;;;;;13.05;8.73;;;21.90;99.90;;;;;;4956242;28;20086;-83
2022/08/14 06:55:00;;;;;;;12.15;8.00;;;21.90;99.90;;;;;;4972773;28;20514;-84
2022/08/14 06:57:40;;;;;;;12.73;8.15;;;22.30;99.90;;;;;;4946217;29;20047;-85
2022/08/14 07:00:12;;;;;;;12.18;8.02;;;22.20;99.90;;;;;;4959596;28;20050;-83
2022/08/14 07:08:27;;;;;;;13.18;7.63;;;22.60;99.90;;;;;;4970222;28;20071;-85
2022/08/14 07:10:55;;;;;;;11.50;7.22;;;22.80;99.90;;;;;;4958581;28;20035;-84
2022/08/14 07:13:23;;;;;;;12.50;7.32;;;22.90;99.90;;;;;;4984704;28;20058;-85
2022/08/14 07:15:52;;;;;;;12.63;7.95;;;23.40;99.90;;;;;;4975840;28;20129;-85
2022/08/14 07:18:23;;;;;;;14.05;7.50;;;23.10;99.90;;;;;;4959020;28;20046;-86
2022/08/14 07:20:49;;;;;;;12.13;7.50;;;23.40;99.90;;;;;;4959295;28;20398;-86
2022/08/14 07:23:15;;;;;;;12.93;6.88;;;23.60;99.90;;;;;;4958893;28;20051;-85
2022/08/14 07:25:42;;;;;;;11.43;7.68;;;23.70;99.90;;;;;;4977316;28;20711;-88
2022/08/14 07:28:26;;;;;;;13.60;7.47;;;23.90;99.90;;;;;;4960433;28;20051;-85
2022/08/14 07:30:56;;;;;;;11.65;7.20;;;24.00;99.90;;;;;;4959313;28;20061;-84
2022/08/14 07:33:26;;;;;;;13.65;7.15;;;24.10;99.90;;;;;;4976824;28;20101;-84
2022/08/14 07:35:53;;;;;;;11.27;7.10;;;24.20;99.90;;;;;;4959185;28;20058;-84
2022/08/14 07:38:20;;;;;;;12.57;7.03;;;24.30;99.90;;;;;;4959209;28;20148;-81
2022/08/14 07:40:47;;;;;;;12.07;7.30;;;24.40;99.90;;;;;;4959360;28;20078;-81
2022/08/14 07:43:13;;;;;;;12.75;7.68;;;24.60;99.90;;;;;;4976151;28;20042;-81
2022/08/14 07:45:40;;;;;;;10.57;6.82;;;24.60;99.90;;;;;;4976876;28;20050;-80
2022/08/14 07:48:05;;;;;;;10.82;7.18;;;24.80;99.90;;;;;;4959379;28;20042;-81
2022/08/14 07:50:32;;;;;;;10.35;7.18;;;24.90;99.90;;;;;;4958504;28;20101;-81
2022/08/14 07:52:58;;;;;;;11.40;6.85;;;25.10;99.90;;;;;;4976577;28;20043;-82
2022/08/14 07:55:24;;;;;;;11.93;7.35;;;25.10;99.90;;;;;;4958808;28;20082;-86
2022/08/14 07:57:50;;;;;;;11.63;7.35;;;25.30;99.90;;;;;;4960890;28;20089;-87
2022/08/14 08:00:19;;;;;;;10.75;7.15;;;25.30;99.90;;;;;;4960254;28;20417;-87
2022/08/14 08:02:46;;;;;;;12.52;7.13;;;25.50;99.90;;;;;;4961538;28;20054;-87
2022/08/14 08:05:14;;;;;;;11.50;6.93;;;25.50;99.90;;;;;;4958568;28;20053;-87
2022/08/14 08:07:41;;;;;;;11.38;7.10;;;25.50;99.90;;;;;;4958762;28;20129;-87
2022/08/14 08:12:56;;;;;;;11.90;6.75;;;25.80;99.90;;;;;;4976427;28;20055;-87
2022/08/14 08:15:24;;;;;;;10.77;6.78;;;25.90;99.90;;;;;;4958732;28;20051;-88
2022/08/14 08:17:50;;;;;;;11.73;7.07;;;26.00;99.90;;;;;;4957845;28;20105;-88
2022/08/14 08:20:18;;;;;;;10.77;6.90;;;26.10;99.90;;;;;;4975674;28;20047;-88
2022/08/14 08:22:45;;;;;;;10.88;6.68;;;26.10;99.90;;;;;;4974854;28;20081;-89
2022/08/14 08:25:12;;;;;;;11.70;7.13;;;26.10;99.90;;;;;;4975334;28;20054;-92
2022/08/14 08:27:39;;;;;;;10.55;6.82;;;26.20;99.90;;;;;;4976039;28;20372;-88
2022/08/14 08:30:08;;;;;;;9.60;6.40;;;26.30;99.90;;;;;;4976875;28;20050;-87
2022/08/14 08:32:54;;;;;;;11.82;6.78;;;26.40;99.90;;;;;;4972417;28;20064;-88
2022/08/14 08:35:24;;;;;;;10.18;6.72;;;26.50;99.90;;;;;;4929158;28;20060;-94
2022/08/14 08:37:53;;;;;;;11.27;6.70;;;26.60;99.90;;;;;;4953102;28;20131;-90
2022/08/14 08:40:28;;;;;;;10.38;6.57;;;26.70;99.90;;;;;;4937676;29;20044;-91
2022/08/14 08:42:56;;;;;;;11.70;7.32;;;26.80;99.90;;;;;;4934840;29;20063;-91
2022/08/14 08:45:35;;;;;;;11.98;7.13;;;26.80;99.90;;;;;;4936040;29;20551;-89
2022/08/14 08:48:13;;;;;;;10.85;6.80;;;26.90;99.90;;;;;;4919725;29;20043;-91
2022/08/14 08:51:00;;;;;;;10.90;6.72;;;27.20;99.90;;;;;;4937385;29;20087;-89
2022/08/14 08:53:31;;;;;;;10.52;6.45;;;27.00;99.90;;;;;;4939078;29;20088;-88
2022/08/14 08:56:09;;;;;;;11.57;6.78;;;27.10;99.90;;;;;;4957831;29;20047;-88
2022/08/14 08:58:36;;;;;;;10.20;6.80;;;27.20;99.90;;;;;;4956814;29;20067;-87
2022/08/14 09:01:02;;;;;;;11.55;6.30;;;27.20;99.90;;;;;;4956845;29;20121;-89
2022/08/14 09:06:53;;;;;;;11.43;6.50;;;27.40;99.90;;;;;;4981969;23;20621;-91
2022/08/14 09:09:49;;;;;;;11.77;6.82;;;27.50;99.90;;;;;;4958971;28;20058;-89
2022/08/14 09:12:34;;;;;;;16.98;7.50;;;27.60;99.90;;;;;;4958320;28;20128;-90
2022/08/14 09:15:01;;;;;;;11.00;6.97;;;27.60;99.90;;;;;;4958681;28;20189;-89
2022/08/14 09:17:27;;;;;;;10.52;6.65;;;27.60;99.90;;;;;;4959350;28;20057;-89
2022/08/14 09:20:10;;;;;;;10.13;6.78;;;27.60;99.90;;;;;;4959248;28;20089;-90
2022/08/14 09:22:36;;;;;;;11.27;6.70;;;27.70;99.90;;;;;;4976395;28;20493;-89
2022/08/14 09:27:51;;;;;;;10.73;6.90;;;27.90;99.90;;;;;;4976757;28;20082;-88
2022/08/14 09:30:17;;;;;;;10.70;6.43;;;28.40;99.90;;;;;;4959069;28;20043;-89
2022/08/14 09:33:00;;;;;;;13.65;6.72;;;28.10;99.60;;;;;;4959930;28;20035;-91
2022/08/14 09:35:58;;;;;;;11.43;6.60;;;28.20;99.50;;;;;;4959091;28;20047;-89
2022/08/14 09:39:18;;;;;;;10.75;6.50;;;28.40;98.90;;;;;;4976495;28;20054;-87
2022/08/14 09:42:24;;;;;;;12.00;6.68;;;28.40;98.60;;;;;;4920742;29;20100;-88
2022/08/14 09:45:16;;;;;;;10.38;6.35;;;28.60;98.50;;;;;;4975552;28;20058;-89
2022/08/14 09:47:47;;;;;;;12.10;6.28;;;28.70;97.90;;;;;;4962739;28;20101;-89
2022/08/14 09:51:04;;;;;;;13.63;6.88;;;28.70;98.10;;;;;;4975126;28;20151;-89
2022/08/14 09:53:42;;;;;;;10.55;6.40;;;28.90;97.80;;;;;;4917616;29;20150;-90
2022/08/14 09:56:28;;;;;;;10.10;6.32;;;29.10;97.60;;;;;;4901301;28;20135;-89
2022/08/14 09:59:14;;;;;;;11.30;6.18;;;29.60;96.90;;;;;;4975949;28;20051;-88
2022/08/14 10:01:40;;;;;;;10.57;6.20;;;29.30;97.10;;;;;;4958398;28;20060;-89
2022/08/14 10:04:28;;;;;;;10.82;6.55;;;29.30;96.90;;;;;;4976507;28;20082;-89
2022/08/14 10:06:54;;;;;;;10.43;6.80;;;29.30;96.60;;;;;;4957727;28;20050;-89
2022/08/14 10:09:20;;;;;;;11.05;6.97;;;29.40;96.50;;;;;;4973982;28;20467;-89
2022/08/14 10:11:57;;;;;;;11.10;6.95;;;29.60;96.40;;;;;;4956452;28;20446;-89
2022/08/14 10:14:27;;;;;;;10.43;6.40;;;29.80;95.80;;;;;;4978731;23;20058;-89
2022/08/14 10:17:25;;;;;;;9.55;6.38;;;29.60;95.80;;;;;;5001413;28;20035;-88
2022/08/14 10:20:12;;;;;;;10.50;6.30;;;29.90;95.90;;;;;;4959227;28;20042;-90
2022/08/14 10:22:38;;;;;;;12.45;6.30;;;30.20;95.50;;;;;;4956769;28;20047;-90
2022/08/14 10:25:27;;;;;;;9.90;6.88;;;30.20;95.30;;;;;;4958903;28;20089;-96
2022/08/14 10:28:14;;;;;;;10.70;6.70;;;30.30;94.90;;;;;;4961069;28;20050;-93
2022/08/14 10:30:55;;;;;;;10.40;6.93;;;30.40;94.40;;;;;;4979754;28;20177;-88
2022/08/14 10:33:31;;;;;;;10.73;6.70;;;30.60;94.50;;;;;;4973555;28;20049;-86
2022/08/14 10:36:01;;;;;;;12.18;6.72;;;30.60;94.50;;;;;;4974457;28;20039;-87
2022/08/14 10:38:33;;;;;;;10.18;6.68;;;30.60;94.20;;;;;;4943748;28;20058;-88
2022/08/14 10:41:15;;;;;;;9.70;6.38;;;30.60;93.80;;;;;;4977815;28;20169;-86
2022/08/14 10:43:44;;;;;;;9.90;6.10;;;30.90;93.30;;;;;;4960868;28;20348;-87
2022/08/14 10:46:18;;;;;;;10.15;6.18;;;30.60;93.30;;;;;;4959380;28;20403;-86
2022/08/14 10:49:08;;;;;;;10.45;6.20;;;30.90;93.20;;;;;;4977527;28;20070;-86
2022/08/14 10:51:34;;;;;;;10.75;5.90;;;31.10;92.80;;;;;;4966932;28;20050;-87
2022/08/14 10:54:08;;;;;;;9.50;5.80;;;31.20;92.90;;;;;;4978228;28;20038;-86
2022/08/14 10:56:34;;;;;;;9.60;5.93;;;31.40;92.40;;;;;;4941836;28;20047;-87
2022/08/14 10:59:02;;;;;;;9.43;6.00;;;31.50;92.20;;;;;;4937896;29;20130;-88
2022/08/14 11:01:35;;;;;;;12.00;5.72;;;31.60;92.00;;;;;;4937424;28;20134;-86
2022/08/14 11:04:01;;;;;;;9.57;5.80;;;31.70;91.90;;;;;;4955817;28;20126;-85
2022/08/14 11:06:29;;;;;;;9.25;5.50;;;31.70;91.90;;;;;;4954773;28;20138;-85
2022/08/14 11:08:55;;;;;;;10.10;5.47;;;31.60;91.50;;;;;;4956741;28;20118;-88
2022/08/14 11:11:25;;;;;;;9.38;5.53;;;31.70;91.40;;;;;;4970102;28;20043;-85
2022/08/14 11:13:56;;;;;;;9.65;5.30;;;31.50;91.00;;;;;;4976410;28;20122;-86
2022/08/14 11:16:23;;;;;;;9.70;5.68;;;31.60;91.10;;;;;;4964732;28;20047;-86
2022/08/14 11:18:49;;;;;;;8.75;5.25;;;31.60;91.00;;;;;;4965364;28;20100;-86
2022/08/14 11:21:18;;;;;;;9.88;5.32;;;31.70;91.00;;;;;;4956093;28;20030;-86
2022/08/14 11:23:56;;;;;;;10.40;5.50;;;31.60;90.80;;;;;;4958904;28;20054;-86
2022/08/14 11:26:43;;;;;;;10.52;5.63;;;31.60;90.50;;;;;;4952374;28;20055;-86
2022/08/14 11:29:10;;;;;;;10.73;5.90;;;31.40;90.70;;;;;;4960883;28;20092;-87
2022/08/14 11:31:54;;;;;;;11.60;5.53;;;31.50;90.60;;;;;;4975769;28;20549;-86
2022/08/14 11:34:45;;;;;;;9.27;5.65;;;31.20;90.50;;;;;;4955965;28;20051;-86
2022/08/14 11:37:11;;;;;;;9.35;5.40;;;31.10;91.10;;;;;;4888127;29;20059;-86
2022/08/14 11:39:47;;;;;;;10.85;5.60;;;30.80;91.10;;;;;;4887360;29;20166;-86
2022/08/14 11:42:43;;;;;;;9.57;5.60;;;31.10;91.10;;;;;;4915140;29;20093;-87
2022/08/14 11:45:33;;;;;;;11.18;5.70;;;31.40;90.40;;;;;;4917358;29;20051;-87
2022/08/14 11:48:18;;;;;;;10.18;5.75;;;31.20;90.50;;;;;;4974458;28;20109;-87
2022/08/14 11:51:05;;;;;;;10.32;5.90;;;30.80;90.90;;;;;;4959019;28;20054;-87
2022/08/14 11:53:31;;;;;;;11.35;5.43;;;31.00;90.90;;;;;;4957164;28;20057;-87
2022/08/14 11:56:09;;;;;;;9.95;6.15;;;31.50;90.90;;;;;;4976568;28;20034;-86
2022/08/14 11:58:36;;;;;;;9.48;5.57;;;32.10;90.50;;;;;;4970687;28;20054;-86
2022/08/14 12:01:13;;;;;;;9.85;5.65;;;32.40;88.10;;;;;;4954052;28;20111;-85
2022/08/14 12:04:12;;;;;;;9.05;5.10;;;32.40;88.20;;;;;;4949934;28;20053;-87
2022/08/14 12:06:54;;;;;;;9.65;5.35;;;32.60;88.40;;;;;;4958441;28;20061;-86
2022/08/14 12:09:52;;;;;;;11.48;5.78;;;32.50;88.80;;;;;;4944568;28;20046;-86
2022/08/14 12:12:43;;;;;;;10.90;5.80;;;32.90;89.20;;;;;;4939746;29;20470;-86
2022/08/14 12:15:11;;;;;;;10.13;5.82;;;32.80;89.60;;;;;;4938425;29;20127;-86
2022/08/14 12:18:40;;;;;;;10.35;5.85;;;32.90;88.60;;;;;;4936221;29;20127;-87
2022/08/14 12:21:40;;;;;;;10.38;5.82;;;33.20;87.50;;;;;;4927205;29;20056;-87
2022/08/14 12:24:08;;;;;;;11.27;6.10;;;32.80;85.70;;;;;;4914909;29;20078;-87
2022/08/14 12:27:27;;;;;;;12.07;6.30;;;32.70;87.80;;;;;;4929760;29;20487;-86
2022/08/14 12:29:53;;;;;;;9.85;5.82;;;33.10;87.50;;;;;;4872569;29;20065;-87
2022/08/14 12:32:19;;;;;;;10.60;5.95;;;33.40;87.40;;;;;;4878903;29;20061;-86
2022/08/14 12:34:52;;;;;;;10.88;6.28;;;33.10;86.80;;;;;;4896217;29;20072;-87
2022/08/14 12:37:37;;;;;;;10.30;5.93;;;33.10;86.00;;;;;;4986391;23;20059;-87
2022/08/14 12:40:30;;;;;;;10.43;5.82;;;33.10;86.40;;;;;;4962534;28;20200;-88
2022/08/14 12:43:02;;;;;;;10.88;5.78;;;32.80;85.30;;;;;;4942220;28;20052;-89
2022/08/14 12:45:48;;;;;;;11.45;5.82;;;32.30;85.60;;;;;;4939205;28;20062;-87
2022/08/14 12:48:16;;;;;;;10.25;5.90;;;31.90;85.90;;;;;;4963689;28;20395;-87
2022/08/14 12:51:32;;;;;;;10.23;6.18;;;31.40;86.60;;;;;;4946266;29;20074;-88
2022/08/14 12:53:59;;;;;;;11.30;6.75;;;31.40;86.80;;;;;;4955367;28;20090;-87
2022/08/14 12:56:33;;;;;;;10.10;5.93;;;31.70;87.40;;;;;;4956461;28;20083;-88
2022/08/14 12:59:00;;;;;;;10.23;6.50;;;31.90;86.90;;;;;;4937408;28;20511;-87
2022/08/14 13:01:44;;;;;;;11.80;6.13;;;32.20;86.40;;;;;;4948396;28;20113;-86
2022/08/14 13:04:15;;;;;;;9.82;6.03;;;32.30;85.40;;;;;;4952906;28;20451;-88
2022/08/14 13:06:50;;;;;;;11.65;6.60;;;31.70;85.70;;;;;;4943550;28;20537;-87
2022/08/14 13:09:16;;;;;;;10.32;5.90;;;31.30;86.40;;;;;;4995235;23;20043;-91
2022/08/14 13:11:54;;;;;;;10.43;6.32;;;31.20;87.00;;;;;;4939219;29;20122;-89
2022/08/14 13:14:24;;;;;;;10.82;6.28;;;31.70;86.80;;;;;;4938620;29;20537;-89
2022/08/14 13:17:12;;;;;;;11.35;6.35;;;32.00;86.00;;;;;;4956690;28;20047;-90
2022/08/14 13:19:39;;;;;;;10.32;6.32;;;31.90;86.20;;;;;;5010226;23;20238;-89
2022/08/14 13:22:31;;;;;;;11.63;5.93;;;31.70;85.90;;;;;;4960089;28;20120;-88
2022/08/14 13:25:19;;;;;;;9.50;5.83;;;31.60;86.10;;;;;;4938772;29;20062;-89
2022/08/14 13:27:58;;;;;;;10.40;5.90;;;32.20;86.20;;;;;;4954366;28;20303;-88
2022/08/14 13:30:25;;;;;;;11.55;5.85;;;32.40;86.00;;;;;;4937219;28;20047;-88
2022/08/14 13:33:09;;;;;;;9.90;5.63;;;32.30;85.80;;;;;;4948175;23;20491;-88
2022/08/14 13:35:55;;;;;;;11.60;5.68;;;32.80;85.80;;;;;;4952989;28;20044;-88